createdAt,value
2022-11-10T00:00:01.792Z,4.50
2022-11-10T00:02:48.609Z,4.37
2022-11-10T00:05:38.573Z,4.53
2022-11-10T00:08:24.561Z,5.87
2022-11-10T00:11:10.912Z,4.20
2022-11-10T00:14:15.543Z,4.97
2022-11-10T00:17:02.007Z,4.13
2022-11-10T00:19:48.079Z,3.03
2022-11-10T00:22:37.408Z,3.63
2022-11-10T00:25:26.028Z,3.97
2022-11-10T00:28:12.109Z,3.73
2022-11-10T00:30:59.469Z,3.70
2022-11-10T00:33:45.696Z,3.67
2022-11-10T00:36:32.330Z,4.07
2022-11-10T00:39:18.940Z,5.70
2022-11-10T00:42:06.356Z,3.23
2022-11-10T00:44:52.258Z,4.13
2022-11-10T00:47:38.609Z,4.17
2022-11-10T00:50:24.690Z,3.17
2022-11-10T00:53:10.992Z,3.47
2022-11-10T00:55:59.496Z,4.10
2022-11-10T00:58:54.605Z,4.20
2022-11-10T01:01:41.671Z,3.90
2022-11-10T01:04:28.311Z,3.23
2022-11-10T01:07:14.236Z,4.30
2022-11-10T01:10:00.415Z,3.67
2022-11-10T01:12:46.554Z,4.30
2022-11-10T01:15:32.441Z,4.57
2022-11-10T01:18:18.739Z,4.90
2022-11-10T01:21:07.295Z,5.83
2022-11-10T01:23:54.850Z,4.40
2022-11-10T01:26:41.109Z,5.33
2022-11-10T01:29:27.355Z,3.80
2022-11-10T01:32:13.496Z,4.40
2022-11-10T01:34:59.335Z,6.40
2022-11-10T01:37:45.559Z,4.03
2022-11-10T01:40:32.118Z,4.10
2022-11-10T01:43:18.119Z,3.50
2022-11-10T01:46:09.754Z,3.70
2022-11-10T01:49:04.371Z,3.83
2022-11-10T01:52:14.867Z,3.60
2022-11-10T01:55:01.167Z,4.87
2022-11-10T01:57:47.651Z,3.53
2022-11-10T02:00:33.547Z,4.47
2022-11-10T02:03:41.075Z,4.90
2022-11-10T02:06:37.870Z,4.50
2022-11-10T02:09:23.780Z,4.07
2022-11-10T02:12:09.782Z,3.77
2022-11-10T02:14:55.713Z,3.60
2022-11-10T02:17:43.796Z,4.50
2022-11-10T02:20:30.303Z,3.83
2022-11-10T02:23:31.811Z,3.37
2022-11-10T02:26:27.986Z,4.17
2022-11-10T02:29:16.305Z,4.37
2022-11-10T02:32:02.166Z,4.50
2022-11-10T02:34:49.116Z,5.10
2022-11-10T02:37:36.552Z,3.90
2022-11-10T02:40:23.153Z,3.67
2022-11-10T02:43:16.470Z,3.10
2022-11-10T02:46:02.874Z,3.83
2022-11-10T02:48:49.315Z,4.30
2022-11-10T02:51:35.448Z,5.10
2022-11-10T02:54:22.293Z,3.77
2022-11-10T02:57:08.943Z,2.90
2022-11-10T02:59:55.147Z,4.03
2022-11-10T03:02:41.188Z,4.40
2022-11-10T03:05:30.769Z,3.83
2022-11-10T03:08:18.351Z,3.90
2022-11-10T03:11:06.295Z,4.73
2022-11-10T03:14:01.661Z,4.13
2022-11-10T03:16:48.208Z,3.87
2022-11-10T03:19:34.318Z,4.43
2022-11-10T03:22:20.777Z,4.13
2022-11-10T03:25:07.993Z,4.47
2022-11-10T03:27:54.159Z,4.10
2022-11-10T03:30:41.296Z,3.97
2022-11-10T03:33:27.426Z,4.17
2022-11-10T03:36:13.934Z,4.80
2022-11-10T03:39:00.700Z,4.67
2022-11-10T03:41:47.221Z,4.40
2022-11-10T03:44:33.197Z,4.60
2022-11-10T03:47:19.609Z,5.03
2022-11-10T03:50:07.919Z,5.57
2022-11-10T03:52:54.051Z,5.47
2022-11-10T03:55:40.583Z,4.20
2022-11-10T03:58:29.697Z,5.40
2022-11-10T04:01:16.426Z,3.90
2022-11-10T04:04:02.775Z,4.83
2022-11-10T04:07:07.675Z,4.53
2022-11-10T04:09:53.725Z,5.70
2022-11-10T04:12:58.304Z,4.10
2022-11-10T04:15:44.392Z,5.00
2022-11-10T04:18:30.712Z,4.80
2022-11-10T04:21:18.197Z,4.73
2022-11-10T04:24:05.078Z,4.43
2022-11-10T04:26:51.085Z,4.67
2022-11-10T04:29:37.522Z,4.20
2022-11-10T04:32:23.668Z,4.40
2022-11-10T04:35:10.252Z,4.70
2022-11-10T04:37:56.649Z,5.23
2022-11-10T04:40:43.470Z,5.93
2022-11-10T04:43:31.084Z,4.37
2022-11-10T04:46:40.313Z,5.27
2022-11-10T04:49:26.699Z,5.33
2022-11-10T04:52:13.003Z,4.80
2022-11-10T04:54:59.221Z,5.37
2022-11-10T04:57:45.252Z,4.67
2022-11-10T05:00:31.303Z,5.07
2022-11-10T05:03:17.344Z,3.50
2022-11-10T05:06:03.663Z,4.57
2022-11-10T05:08:50.862Z,4.57
2022-11-10T05:11:36.841Z,3.73
2022-11-10T05:14:23.554Z,4.57
2022-11-10T05:17:09.753Z,5.20
2022-11-10T05:19:55.610Z,5.30
2022-11-10T05:23:06.819Z,4.10
2022-11-10T05:25:53.062Z,4.97
2022-11-10T05:28:42.448Z,4.90
2022-11-10T05:31:30.380Z,4.43
2022-11-10T05:34:16.730Z,4.17
2022-11-10T05:37:03.458Z,4.00
2022-11-10T05:39:49.708Z,5.20
2022-11-10T05:42:45.362Z,4.20
2022-11-10T05:45:31.526Z,4.60
2022-11-10T05:48:18.160Z,4.63
2022-11-10T05:51:05.231Z,4.97
2022-11-10T05:53:51.590Z,6.10
2022-11-10T05:56:37.860Z,3.90
2022-11-10T05:59:24.258Z,5.30
2022-11-10T06:02:10.203Z,4.60
2022-11-10T06:04:56.939Z,4.87
2022-11-10T06:07:43.095Z,4.67
2022-11-10T06:10:30.039Z,5.30
2022-11-10T06:13:16.340Z,5.17
2022-11-10T06:16:02.793Z,3.97
2022-11-10T06:18:49.000Z,4.50
2022-11-10T06:21:35.278Z,4.50
2022-11-10T06:24:21.555Z,5.50
2022-11-10T06:27:07.646Z,5.10
2022-11-10T06:29:53.905Z,5.67
2022-11-10T06:32:44.484Z,5.00
2022-11-10T06:35:31.639Z,6.60
2022-11-10T06:38:17.540Z,5.23
2022-11-10T06:41:03.343Z,4.00
2022-11-10T06:43:49.583Z,4.57
2022-11-10T06:46:41.089Z,5.10
2022-11-10T06:49:28.460Z,4.93
2022-11-10T06:52:14.291Z,6.13
2022-11-10T06:55:00.589Z,5.80
2022-11-10T06:57:46.587Z,4.87
2022-11-10T07:00:32.856Z,5.07
2022-11-10T07:03:19.022Z,4.80
2022-11-10T07:06:06.518Z,5.53
2022-11-10T07:08:52.959Z,4.90
2022-11-10T07:11:39.222Z,5.80
2022-11-10T07:14:38.793Z,4.90
2022-11-10T07:17:26.059Z,6.13
2022-11-10T07:20:12.760Z,5.00
2022-11-10T07:23:06.440Z,5.13
2022-11-10T07:25:52.472Z,6.20
2022-11-10T07:28:39.975Z,5.90
2022-11-10T07:31:26.168Z,5.00
2022-11-10T07:34:12.565Z,5.00
2022-11-10T07:36:59.112Z,6.60
2022-11-10T07:39:45.639Z,5.20
2022-11-10T07:42:32.267Z,5.30
2022-11-10T07:45:18.263Z,5.27
2022-11-10T07:48:08.178Z,5.60
2022-11-10T07:50:54.705Z,5.13
2022-11-10T07:53:41.533Z,5.17
2022-11-10T07:56:28.588Z,4.70
2022-11-10T07:59:15.052Z,4.70
2022-11-10T08:02:02.159Z,4.37
2022-11-10T08:04:48.476Z,4.13
2022-11-10T08:07:34.838Z,4.40
2022-11-10T08:10:21.023Z,5.87
2022-11-10T08:13:12.799Z,3.97
2022-11-10T08:16:03.206Z,3.90
2022-11-10T08:18:49.609Z,3.43
2022-11-10T08:21:35.773Z,4.57
2022-11-10T08:24:22.016Z,3.40
2022-11-10T08:27:08.069Z,3.70
2022-11-10T08:29:54.114Z,3.40
2022-11-10T08:32:40.134Z,4.00
2022-11-10T08:35:34.417Z,3.30
2022-11-10T08:38:24.918Z,3.43
2022-11-10T08:41:12.206Z,3.93
2022-11-10T08:43:58.063Z,3.70
2022-11-10T08:46:44.459Z,3.70
2022-11-10T08:49:30.657Z,3.20
2022-11-10T08:52:17.792Z,3.20
2022-11-10T08:55:04.328Z,3.97
2022-11-10T08:57:50.530Z,3.40
2022-11-10T09:00:37.035Z,4.30
2022-11-10T09:03:26.402Z,3.30
2022-11-10T09:06:12.548Z,3.70
2022-11-10T09:08:58.883Z,3.63
2022-11-10T09:11:44.653Z,4.20
2022-11-10T09:14:30.764Z,3.97
2022-11-10T09:17:16.775Z,4.83
2022-11-10T09:20:03.134Z,3.70
2022-11-10T09:22:49.192Z,3.10
2022-11-10T09:25:35.953Z,3.37
2022-11-10T09:28:25.780Z,3.10
2022-11-10T09:31:12.006Z,3.63
2022-11-10T09:33:59.370Z,2.93
2022-11-10T09:36:48.714Z,3.73
2022-11-10T09:39:41.125Z,3.67
2022-11-10T09:42:39.284Z,3.13
2022-11-10T09:45:40.194Z,3.17
2022-11-10T09:48:36.905Z,3.17
2022-11-10T09:51:48.044Z,3.57
2022-11-10T09:54:59.475Z,3.37
2022-11-10T09:58:00.656Z,4.43
2022-11-10T10:01:47.567Z,4.10
2022-11-10T10:05:55.338Z,2.90
2022-11-10T10:09:45.420Z,3.73
2022-11-10T10:13:36.441Z,3.30
2022-11-10T10:17:26.195Z,3.80
2022-11-10T10:20:42.973Z,3.47
2022-11-10T10:24:09.253Z,3.23
2022-11-10T10:27:06.475Z,3.13
2022-11-10T10:29:53.903Z,3.60
2022-11-10T10:32:40.801Z,3.13
2022-11-10T10:35:29.025Z,3.10
2022-11-10T10:38:34.960Z,4.03
2022-11-10T10:41:31.487Z,2.90
2022-11-10T10:44:20.912Z,3.30
2022-11-10T10:47:06.845Z,4.07
2022-11-10T10:50:11.893Z,3.00
2022-11-10T10:53:25.200Z,3.20
2022-11-10T10:56:28.328Z,3.47
2022-11-10T10:59:23.934Z,3.50
2022-11-10T11:02:32.245Z,3.00
2022-11-10T11:05:20.425Z,4.03
2022-11-10T11:08:06.640Z,3.30
2022-11-10T11:10:53.015Z,3.37
2022-11-10T11:13:39.569Z,3.10
2022-11-10T11:16:25.904Z,3.47
2022-11-10T11:19:13.536Z,3.63
2022-11-10T11:22:56.736Z,2.93
2022-11-10T11:25:49.100Z,3.27
2022-11-10T11:29:37.535Z,3.10
2022-11-10T11:32:53.814Z,5.30
2022-11-10T11:36:27.415Z,3.53
2022-11-10T11:39:50.691Z,3.33
2022-11-10T11:43:06.416Z,2.73
2022-11-10T11:46:36.504Z,3.90
2022-11-10T11:50:25.449Z,3.33
2022-11-10T11:53:34.252Z,4.60
2022-11-10T11:56:41.290Z,2.63
2022-11-10T12:00:15.642Z,2.60
2022-11-10T12:04:02.746Z,3.10
2022-11-10T12:07:46.454Z,3.30
2022-11-10T12:11:07.775Z,3.10
2022-11-10T12:14:56.514Z,2.73
2022-11-10T12:17:54.345Z,2.40
2022-11-10T12:21:22.408Z,2.33
2022-11-10T12:25:14.152Z,3.13
2022-11-10T12:28:25.703Z,3.30
2022-11-10T12:31:25.296Z,2.67
2022-11-10T12:35:03.510Z,2.23
2022-11-10T12:38:21.808Z,2.60
2022-11-10T12:41:21.693Z,2.33
2022-11-10T12:44:43.561Z,3.90
2022-11-10T12:47:46.013Z,2.57
2022-11-10T12:51:21.815Z,2.40
2022-11-10T12:54:17.094Z,2.77
2022-11-10T12:57:25.600Z,2.80
2022-11-10T13:00:37.618Z,3.03
2022-11-10T13:03:39.134Z,2.03
2022-11-10T13:06:37.729Z,2.43
2022-11-10T13:09:48.950Z,1.80
2022-11-10T13:13:20.524Z,1.93
2022-11-10T13:16:50.890Z,2.00
2022-11-10T13:20:14.493Z,3.13
2022-11-10T13:23:44.282Z,2.00
2022-11-10T13:26:45.125Z,1.73
2022-11-10T13:29:42.971Z,2.33
2022-11-10T13:32:34.420Z,2.23
2022-11-10T13:35:29.692Z,2.20
2022-11-10T13:38:39.176Z,2.40
2022-11-10T13:41:30.718Z,2.23
2022-11-10T13:44:42.366Z,1.80
2022-11-10T13:48:12.221Z,1.67
2022-11-10T13:51:55.551Z,1.63
2022-11-10T13:55:39.562Z,1.83
2022-11-10T13:58:32.781Z,1.60
2022-11-10T14:01:18.844Z,2.23
2022-11-10T14:04:05.401Z,2.03
2022-11-10T14:06:57.202Z,2.93
2022-11-10T14:09:53.731Z,2.40
2022-11-10T14:13:02.895Z,2.13
2022-11-10T14:15:54.316Z,1.50
2022-11-10T14:19:24.961Z,3.17
2022-11-10T14:22:44.715Z,2.00
2022-11-10T14:25:44.209Z,2.50
2022-11-10T14:28:38.182Z,2.10
2022-11-10T14:31:26.764Z,1.90
2022-11-10T14:34:18.940Z,1.93
2022-11-10T14:37:06.727Z,2.33
2022-11-10T14:40:01.086Z,3.20
2022-11-10T14:42:48.134Z,3.50
2022-11-10T14:45:34.340Z,1.93
2022-11-10T14:48:27.649Z,2.33
2022-11-10T14:51:19.196Z,2.40
2022-11-10T14:54:07.412Z,1.97
2022-11-10T14:56:57.190Z,3.33
2022-11-10T14:59:43.404Z,3.50
2022-11-10T15:02:37.510Z,3.50
2022-11-10T15:05:43.939Z,2.00
2022-11-10T15:08:48.752Z,2.93
2022-11-10T15:12:31.166Z,1.80
2022-11-10T15:15:39.240Z,2.40
2022-11-10T15:18:41.393Z,2.20
2022-11-10T15:21:44.192Z,2.77
2022-11-10T15:24:32.005Z,2.90
2022-11-10T15:27:33.375Z,3.00
2022-11-10T15:30:26.972Z,2.80
2022-11-10T15:33:28.817Z,2.57
2022-11-10T15:36:23.644Z,2.97
2022-11-10T15:39:23.840Z,2.00
2022-11-10T15:42:25.095Z,2.50
2022-11-10T15:45:12.844Z,2.30
2022-11-10T15:48:00.465Z,2.80
2022-11-10T15:50:55.166Z,2.17
2022-11-10T15:53:52.258Z,2.77
2022-11-10T15:56:38.785Z,3.63
2022-11-10T15:59:25.891Z,2.60
2022-11-10T16:02:26.818Z,2.73
2022-11-10T16:05:14.396Z,2.80
2022-11-10T16:08:00.887Z,2.87
2022-11-10T16:10:56.728Z,2.73
2022-11-10T16:13:43.866Z,2.30
2022-11-10T16:16:32.359Z,4.03
2022-11-10T16:19:18.869Z,2.73
2022-11-10T16:22:05.094Z,2.90
2022-11-10T16:24:51.218Z,2.50
2022-11-10T16:27:40.517Z,3.30
2022-11-10T16:30:26.694Z,3.20
2022-11-10T16:33:29.404Z,3.20
2022-11-10T16:36:31.697Z,3.07
2022-11-10T16:39:18.754Z,3.60
2022-11-10T16:42:04.839Z,2.43
2022-11-10T16:44:52.439Z,2.50
2022-11-10T16:47:38.708Z,2.50
2022-11-10T16:50:46.605Z,2.37
2022-11-10T16:53:32.996Z,2.37
2022-11-10T16:56:21.084Z,2.50
2022-11-10T16:59:07.171Z,2.53
2022-11-10T17:01:55.195Z,2.60
2022-11-10T17:04:41.624Z,2.90
2022-11-10T17:07:30.068Z,3.87
2022-11-10T17:10:22.359Z,3.70
2022-11-10T17:13:11.964Z,2.57
2022-11-10T17:16:36.241Z,3.13
2022-11-10T17:19:26.724Z,2.97
2022-11-10T17:22:21.725Z,3.00
2022-11-10T17:25:28.875Z,2.60
2022-11-10T17:28:19.343Z,2.80
2022-11-10T17:31:06.007Z,2.90
2022-11-10T17:33:52.270Z,2.57
2022-11-10T17:36:38.463Z,2.80
2022-11-10T17:39:25.255Z,2.67
2022-11-10T17:42:14.567Z,3.57
2022-11-10T17:45:00.530Z,2.90
2022-11-10T17:47:49.325Z,2.77
2022-11-10T17:50:41.415Z,2.50
2022-11-10T17:53:29.571Z,2.60
2022-11-10T17:56:16.221Z,2.70
2022-11-10T17:59:02.567Z,2.40
2022-11-10T18:01:48.708Z,2.50
2022-11-10T18:04:34.869Z,2.80
2022-11-10T18:07:21.103Z,2.73
2022-11-10T18:10:12.587Z,2.50
2022-11-10T18:12:58.708Z,2.63
2022-11-10T18:15:48.491Z,2.97
2022-11-10T18:18:36.384Z,2.67
2022-11-10T18:21:22.925Z,2.80
2022-11-10T18:24:09.077Z,2.07
2022-11-10T18:26:55.003Z,2.90
2022-11-10T18:29:42.365Z,2.77
2022-11-10T18:32:28.947Z,3.00
2022-11-10T18:35:15.411Z,2.60
2022-11-10T18:38:03.138Z,3.00
2022-11-10T18:40:52.186Z,2.80
2022-11-10T18:43:38.239Z,2.80
2022-11-10T18:46:24.549Z,3.00
2022-11-10T18:49:12.501Z,2.93
2022-11-10T18:52:00.218Z,2.40
2022-11-10T18:54:46.416Z,2.50
2022-11-10T18:57:33.088Z,2.90
2022-11-10T19:00:19.575Z,2.87
2022-11-10T19:03:05.504Z,2.70
2022-11-10T19:05:58.398Z,3.00
2022-11-10T19:08:46.259Z,3.13
2022-11-10T19:11:34.570Z,2.40
2022-11-10T19:14:21.013Z,3.37
2022-11-10T19:17:07.521Z,3.13
2022-11-10T19:19:56.373Z,3.00
2022-11-10T19:22:43.576Z,3.03
2022-11-10T19:25:30.350Z,4.37
2022-11-10T19:28:16.231Z,3.17
2022-11-10T19:31:13.902Z,3.63
2022-11-10T19:34:00.538Z,4.20
2022-11-10T19:36:49.194Z,3.73
2022-11-10T19:39:35.510Z,3.40
2022-11-10T19:42:21.947Z,3.20
2022-11-10T19:45:09.641Z,3.20
2022-11-10T19:47:57.320Z,3.77
2022-11-10T19:50:49.137Z,2.97
2022-11-10T19:53:35.819Z,2.80
2022-11-10T19:56:29.075Z,3.13
2022-11-10T19:59:19.335Z,3.40
2022-11-10T20:02:05.307Z,3.27
2022-11-10T20:05:09.987Z,3.53
2022-11-10T20:08:15.474Z,3.23
2022-11-10T20:11:14.673Z,3.00
2022-11-10T20:14:00.882Z,3.00
2022-11-10T20:16:46.872Z,3.57
2022-11-10T20:19:40.900Z,3.27
2022-11-10T20:22:27.911Z,3.30
2022-11-10T20:25:14.829Z,3.60
2022-11-10T20:28:06.069Z,3.30
2022-11-10T20:30:56.690Z,3.00
2022-11-10T20:33:45.235Z,3.90
2022-11-10T20:36:34.074Z,3.53
2022-11-10T20:39:20.464Z,3.77
2022-11-10T20:42:07.066Z,3.60
2022-11-10T20:44:53.251Z,3.43
2022-11-10T20:47:39.354Z,3.57
2022-11-10T20:50:26.169Z,4.27
2022-11-10T20:53:12.232Z,4.20
2022-11-10T20:56:02.688Z,3.60
2022-11-10T20:58:49.489Z,3.13
2022-11-10T21:01:37.701Z,3.53
2022-11-10T21:04:23.976Z,3.33
2022-11-10T21:07:10.591Z,4.17
2022-11-10T21:09:56.708Z,3.70
2022-11-10T21:12:51.428Z,3.43
2022-11-10T21:15:40.917Z,3.50
2022-11-10T21:18:36.573Z,3.87
2022-11-10T21:21:34.070Z,3.30
2022-11-10T21:24:20.870Z,3.70
2022-11-10T21:27:10.351Z,3.70
2022-11-10T21:29:56.152Z,4.40
2022-11-10T21:32:42.508Z,3.70
2022-11-10T21:35:29.576Z,3.40
2022-11-10T21:38:17.986Z,4.00
2022-11-10T21:41:05.217Z,3.27
2022-11-10T21:43:51.963Z,3.80
2022-11-10T21:46:38.699Z,4.33
2022-11-10T21:49:24.939Z,3.90
2022-11-10T21:52:11.850Z,3.80
2022-11-10T21:54:58.264Z,4.10
2022-11-10T21:57:44.287Z,3.83
2022-11-10T22:00:30.560Z,4.13
2022-11-10T22:03:16.767Z,5.17
2022-11-10T22:06:14.560Z,4.03
2022-11-10T22:09:00.365Z,3.80
2022-11-10T22:12:05.411Z,4.00
2022-11-10T22:15:09.614Z,4.37
2022-11-10T22:18:15.020Z,3.63
2022-11-10T22:21:03.361Z,4.60
2022-11-10T22:24:08.099Z,4.53
2022-11-10T22:27:01.988Z,3.50
2022-11-10T22:29:47.934Z,3.53
2022-11-10T22:32:34.067Z,4.60
2022-11-10T22:35:38.335Z,4.33
2022-11-10T22:38:26.555Z,3.83
2022-11-10T22:41:35.754Z,4.63
2022-11-10T22:44:25.043Z,3.80
2022-11-10T22:47:11.765Z,3.93
2022-11-10T22:49:58.002Z,3.80
2022-11-10T22:52:44.667Z,4.40
2022-11-10T22:55:31.204Z,4.60
2022-11-10T22:58:17.973Z,4.40
2022-11-10T23:01:11.576Z,3.80
2022-11-10T23:04:00.911Z,4.23
2022-11-10T23:06:47.232Z,3.53
2022-11-10T23:09:34.883Z,4.87
2022-11-10T23:12:21.340Z,3.33
2022-11-10T23:15:08.605Z,3.83
2022-11-10T23:17:55.207Z,3.47
2022-11-10T23:20:41.643Z,3.83
2022-11-10T23:23:32.435Z,4.90
2022-11-10T23:26:33.996Z,4.30
2022-11-10T23:29:20.147Z,3.50
2022-11-10T23:32:06.323Z,3.60
2022-11-10T23:34:52.144Z,3.23
2022-11-10T23:37:38.188Z,4.00
2022-11-10T23:40:24.274Z,4.40
2022-11-10T23:43:10.565Z,3.83
2022-11-10T23:46:07.145Z,4.63
2022-11-10T23:48:53.664Z,4.33
2022-11-10T23:51:39.970Z,3.70
2022-11-10T23:54:26.073Z,4.40
2022-11-10T23:57:12.547Z,4.73
2022-11-10T23:59:59.036Z,4.00
